Time;durP1;ratioP1;P1;durP2;ratioP2;P2;SDS_P1;SDS_P2;PMS_P1;PMS_P2;Temp;Humidity;BMP_temperature;BMP_pressure;BME280_temperature;BME280_humidity;BME280_pressure;Samples;Min_cycle;Max_cycle;Signal;HPM_P1;HPM_P2
2021/06/11 00:04:15;;;;;;;11.83;6.20;;;;;;;22.03;65.38;99163.83;4292862;82;28501;-75
2021/06/11 00:10:17;;;;;;;11.65;6.53;;;;;;;22.16;65.23;99162.20;4272380;83;28459;-75
2021/06/11 00:16:20;;;;;;;8.88;5.42;;;;;;;22.22;65.41;99148.64;4289074;82;28481;-76
2021/06/11 00:22:22;;;;;;;10.65;6.22;;;;;;;21.81;68.42;99155.77;4256927;82;28485;-76
2021/06/11 00:28:23;;;;;;;10.85;6.30;;;;;;;22.12;66.70;99162.55;4272309;82;28447;-76
2021/06/11 00:34:25;;;;;;;11.88;6.65;;;;;;;22.15;65.30;99157.28;4272449;82;28456;-76
2021/06/11 00:40:26;;;;;;;10.95;6.42;;;;;;;22.43;63.31;99151.77;4276226;82;28481;-76
2021/06/11 00:46:28;;;;;;;12.05;6.50;;;;;;;22.72;60.58;99142.14;4250065;82;28508;-76
2021/06/11 00:52:34;;;;;;;10.28;5.92;;;;;;;22.29;63.74;99145.52;4246222;82;28513;-77
2021/06/11 00:58:36;;;;;;;9.98;5.95;;;;;;;22.31;62.61;99140.54;4246592;82;28531;-79
2021/06/11 01:04:37;;;;;;;11.18;6.00;;;;;;;22.06;63.93;99148.16;4206523;82;28463;-76
2021/06/11 01:10:40;;;;;;;11.57;6.55;;;;;;;22.21;62.33;99155.24;4226679;82;28464;-77
2021/06/11 01:16:41;;;;;;;10.70;6.70;;;;;;;22.15;62.09;99151.80;4250869;82;28446;-77
2021/06/11 01:22:57;;;;;;;9.88;6.28;;;;;;;22.09;62.33;99151.67;4205768;82;28494;-76
2021/06/11 01:29:08;;;;;;;10.80;6.12;;;;;;;22.06;62.54;99145.42;4204164;82;28537;-76
2021/06/11 01:35:18;;;;;;;8.28;5.62;;;;;;;21.52;66.13;99134.94;4201906;82;28525;-76
2021/06/11 01:41:21;;;;;;;10.95;5.87;;;;;;;21.48;64.98;99144.88;4241437;82;28462;-76
2021/06/11 01:47:23;;;;;;;9.78;5.70;;;;;;;21.52;65.45;99145.88;4254755;82;28569;-77
2021/06/11 01:53:27;;;;;;;7.65;5.17;;;;;;;21.15;68.20;99146.27;4209368;84;28516;-76
2021/06/11 01:59:29;;;;;;;10.35;5.83;;;;;;;21.58;63.54;99149.33;4193551;84;28528;-76
2021/06/11 02:05:31;;;;;;;8.65;5.20;;;;;;;21.25;66.53;99141.17;4241049;84;28457;-76
2021/06/11 02:11:35;;;;;;;8.65;5.45;;;;;;;20.96;70.96;99143.56;4216186;83;28482;-76
2021/06/11 02:17:45;;;;;;;7.60;5.25;;;;;;;21.02;70.47;99140.44;4186642;84;28497;-76
2021/06/11 02:23:47;;;;;;;7.35;4.78;;;;;;;21.17;68.91;99137.21;4228351;84;28506;-76
2021/06/11 02:29:48;;;;;;;9.13;5.50;;;;;;;21.00;70.77;99130.94;4229006;84;28492;-76
2021/06/11 02:35:49;;;;;;;8.20;5.55;;;;;;;21.20;69.22;99142.07;4226753;84;28536;-77
2021/06/11 02:41:56;;;;;;;7.75;4.75;;;;;;;21.37;66.78;99143.44;4221660;84;28508;-77
2021/06/11 02:48:19;;;;;;;9.65;4.80;;;;;;;21.51;67.71;99145.63;4220706;84;28492;-77
2021/06/11 02:54:28;;;;;;;7.40;5.03;;;;;;;21.59;67.49;99147.67;4228839;84;28576;-78
2021/06/11 03:00:31;;;;;;;11.05;6.17;;;;;;;21.81;65.59;99153.04;4222175;82;28466;-77
2021/06/11 03:06:33;;;;;;;11.73;5.87;;;;;;;21.89;64.43;99153.45;4199802;83;28513;-77
2021/06/11 03:12:38;;;;;;;11.73;6.75;;;;;;;21.94;66.23;99148.69;4167135;85;28471;-77
2021/06/11 03:18:48;;;;;;;11.95;5.97;;;;;;;22.13;63.54;99147.77;4153696;84;28582;-77
2021/06/11 03:25:22;;;;;;;11.60;6.78;;;;;;;22.43;62.57;99144.09;4165693;85;28498;-77
2021/06/11 03:31:36;;;;;;;12.78;6.12;;;;;;;22.98;59.51;99144.50;4152188;84;28481;-77
2021/06/11 03:37:38;;;;;;;12.18;6.55;;;;;;;23.02;59.05;99149.38;4149533;85;28552;-77
2021/06/11 03:43:41;;;;;;;11.03;6.72;;;;;;;23.29;57.80;99141.59;4176409;85;28562;-78
2021/06/11 03:49:45;;;;;;;12.33;6.90;;;;;;;23.52;57.44;99148.41;4238596;82;28468;-78
2021/06/11 03:55:51;;;;;;;13.72;7.45;;;;;;;23.64;56.64;99145.88;4252082;82;28527;-75
2021/06/11 04:01:52;;;;;;;12.40;7.83;;;;;;;23.85;55.81;99148.63;4248137;82;28497;-77
2021/06/11 04:07:56;;;;;;;12.73;7.83;;;;;;;24.04;55.20;99147.81;4237094;82;28480;-76
2021/06/11 04:14:01;;;;;;;13.62;8.00;;;;;;;24.04;55.80;99151.92;4252998;81;28445;-74
2021/06/11 04:20:04;;;;;;;11.15;7.28;;;;;;;24.15;55.46;99151.63;4272140;81;28908;-77
2021/06/11 04:26:08;;;;;;;10.78;7.35;;;;;;;24.27;54.81;99146.35;4251964;82;28470;-78
2021/06/11 04:32:10;;;;;;;11.40;7.20;;;;;;;24.53;54.12;99151.64;4272498;81;28520;-77
2021/06/11 04:38:14;;;;;;;10.50;7.30;;;;;;;24.58;53.54;99153.66;4280720;81;28450;-76
2021/06/11 04:44:15;;;;;;;12.03;7.40;;;;;;;24.85;53.49;99156.44;4288606;81;28461;-75
2021/06/11 04:50:16;;;;;;;11.75;7.60;;;;;;;24.84;54.28;99150.70;4248079;81;28516;-74
2021/06/11 04:56:18;;;;;;;12.03;7.30;;;;;;;24.97;53.18;99157.96;4251084;81;28456;-76
2021/06/11 05:02:20;;;;;;;10.28;7.12;;;;;;;24.93;53.66;99155.60;4242753;81;28495;-75
2021/06/11 05:08:21;;;;;;;10.93;6.60;;;;;;;25.19;52.59;99161.06;4255638;82;28451;-77
2021/06/11 05:14:22;;;;;;;14.53;6.95;;;;;;;25.32;52.29;99152.97;4238240;82;28475;-76
2021/06/11 05:20:26;;;;;;;9.10;6.40;;;;;;;25.61;51.22;99155.56;4216330;82;28474;-75
2021/06/11 05:26:27;;;;;;;9.43;5.95;;;;;;;25.57;50.39;99160.95;4234455;83;28514;-78
2021/06/11 05:32:29;;;;;;;11.68;6.87;;;;;;;25.75;50.75;99158.10;4253362;81;28443;-79
2021/06/11 05:38:30;;;;;;;11.97;7.42;;;;;;;25.60;51.58;99153.95;4292741;82;28475;-80
2021/06/11 05:44:31;;;;;;;10.70;7.65;;;;;;;25.98;50.93;99161.96;4244237;81;28541;-85
2021/06/11 05:50:33;;;;;;;14.43;7.08;;;;;;;25.64;51.80;99168.69;4217750;81;28480;-83
2021/06/11 05:56:36;;;;;;;11.53;7.33;;;;;;;25.48;51.97;99171.14;4163353;83;28476;-83
2021/06/11 06:02:37;;;;;;;11.25;6.25;;;;;;;25.98;51.38;99170.23;4170883;83;28571;-84
2021/06/11 06:08:39;;;;;;;10.08;6.50;;;;;;;25.89;52.11;99168.90;4174117;83;28471;-83
2021/06/11 06:14:40;;;;;;;9.00;6.22;;;;;;;26.12;51.20;99168.06;4193481;83;28549;-84
2021/06/11 06:20:46;;;;;;;9.55;6.05;;;;;;;26.39;51.34;99174.23;4180227;84;28463;-83
2021/06/11 06:26:45;;;;;;;13.43;7.12;;;;;;;26.52;50.42;99175.12;4221816;82;28470;-83
2021/06/11 06:32:47;;;;;;;11.00;6.85;;;;;;;26.65;50.35;99177.39;4227294;82;28498;-82
2021/06/11 06:38:52;;;;;;;10.00;6.70;;;;;;;26.69;49.62;99171.42;4206120;82;28472;-82
2021/06/11 06:44:53;;;;;;;11.53;6.22;;;;;;;26.85;47.83;99174.97;4209341;83;28530;-82
2021/06/11 06:50:58;;;;;;;9.18;5.95;;;;;;;26.92;47.50;99164.80;4217017;83;28479;-82
2021/06/11 06:57:01;;;;;;;9.48;5.97;;;;;;;27.03;47.08;99159.68;4212259;82;28453;-82
2021/06/11 07:03:03;;;;;;;9.45;6.67;;;;;;;27.16;46.99;99161.33;4219753;82;28535;-80
2021/06/11 07:09:07;;;;;;;10.35;5.70;;;;;;;27.20;46.40;99159.48;4218719;82;28543;-78
2021/06/11 07:15:09;;;;;;;10.32;7.10;;;;;;;27.59;46.32;99162.60;4206523;82;28533;-78
2021/06/11 07:21:12;;;;;;;8.30;5.92;;;;;;;26.81;46.08;99167.11;4169539;83;28468;-79
2021/06/11 07:27:14;;;;;;;8.45;5.87;;;;;;;27.04;46.36;99168.98;4157313;83;28469;-77
2021/06/11 07:33:15;;;;;;;6.95;5.80;;;;;;;27.66;46.24;99162.26;4156969;84;28530;-77
2021/06/11 07:39:19;;;;;;;12.20;7.15;;;;;;;27.85;45.24;99156.75;4163656;83;28563;-78
2021/06/11 07:45:20;;;;;;;12.55;7.55;;;;;;;26.99;47.36;99166.44;4172923;84;28547;-79
2021/06/11 07:51:21;;;;;;;8.25;6.05;;;;;;;27.38;47.45;99166.21;4184446;84;28503;-79
2021/06/11 07:57:23;;;;;;;9.78;5.72;;;;;;;28.05;45.50;99156.98;4162354;83;28539;-80
2021/06/11 08:03:24;;;;;;;13.88;7.78;;;;;;;27.93;42.37;99153.08;4124868;84;28551;-79
2021/06/11 08:09:29;;;;;;;8.35;5.40;;;;;;;26.93;43.66;99162.27;4153940;83;28449;-79
2021/06/11 08:15:29;;;;;;;9.23;6.22;;;;;;;27.68;41.35;99155.02;4156013;83;28550;-82
2021/06/11 08:21:30;;;;;;;10.10;6.28;;;;;;;27.62;41.52;99151.68;4155927;83;28507;-82
2021/06/11 08:27:31;;;;;;;9.90;6.15;;;;;;;28.26;40.62;99144.42;4123243;84;28526;-80
2021/06/11 08:33:34;;;;;;;6.97;5.40;;;;;;;29.05;39.95;99144.56;4154291;83;28541;-80
2021/06/11 08:39:36;;;;;;;6.92;5.20;;;;;;;28.89;38.83;99142.33;4135739;84;28474;-80
2021/06/11 08:45:37;;;;;;;8.65;5.33;;;;;;;29.84;39.08;99126.98;4148999;83;28511;-80
2021/06/11 08:51:40;;;;;;;11.05;5.92;;;;;;;29.96;38.75;99123.30;4155197;83;28561;-81
2021/06/11 08:57:42;;;;;;;8.93;5.00;;;;;;;29.68;38.85;99122.02;4241560;81;28610;-81
2021/06/11 09:03:57;;;;;;;7.75;4.78;;;;;;;28.58;35.79;99114.16;4239551;81;28502;-81
2021/06/11 09:10:04;;;;;;;5.25;3.92;;;;;;;29.68;37.30;99108.17;4242219;81;28523;-81
2021/06/11 09:16:24;;;;;;;5.37;4.22;;;;;;;29.82;36.72;99106.33;4219582;82;28451;-80
2021/06/11 09:22:47;;;;;;;5.95;4.22;;;;;;;30.08;37.17;99104.98;4226445;82;28491;-83
2021/06/11 09:28:48;;;;;;;5.45;3.87;;;;;;;30.16;36.61;99113.69;4209446;82;28477;-80
2021/06/11 09:34:55;;;;;;;9.10;3.95;;;;;;;30.31;36.68;99111.43;4218861;82;28494;-81
2021/06/11 09:41:02;;;;;;;5.45;3.90;;;;;;;30.61;34.96;99103.92;4255674;82;28533;-81
2021/06/11 09:47:04;;;;;;;6.83;4.00;;;;;;;31.15;35.14;99101.39;4261686;82;28577;-81
2021/06/11 09:53:11;;;;;;;4.75;4.03;;;;;;;31.15;35.37;99111.11;4252957;82;28491;-81
2021/06/11 09:59:16;;;;;;;5.42;4.08;;;;;;;30.70;33.85;99105.11;4242696;82;28551;-81
2021/06/11 10:05:17;;;;;;;5.47;3.47;;;;;;;30.85;33.55;99097.87;4229701;82;28520;-82
2021/06/11 10:11:25;;;;;;;6.22;4.10;;;;;;;30.93;37.07;99094.67;4253796;82;28521;-80
2021/06/11 10:17:25;;;;;;;4.78;3.52;;;;;;;30.88;36.73;99087.44;4239648;82;28469;-81
2021/06/11 10:23:28;;;;;;;5.87;3.50;;;;;;;30.97;36.07;99071.11;4251852;82;28471;-80
2021/06/11 10:29:30;;;;;;;5.65;3.50;;;;;;;31.26;35.19;99073.04;4246510;82;28462;-79
2021/06/11 10:35:44;;;;;;;4.30;3.27;;;;;;;30.87;36.05;99074.71;4255372;82;28520;-79
2021/06/11 10:42:07;;;;;;;4.83;3.02;;;;;;;30.95;35.84;99067.91;4240121;82;28640;-79
2021/06/11 10:48:09;;;;;;;3.83;2.62;;;;;;;31.37;35.79;99056.57;4259466;82;28543;-79
2021/06/11 10:54:26;;;;;;;5.30;3.62;;;;;;;31.30;36.70;99048.33;4246722;82;28528;-80
2021/06/11 11:00:37;;;;;;;5.08;3.60;;;;;;;31.07;36.38;99041.95;4247375;82;28501;-80
2021/06/11 11:06:39;;;;;;;8.40;3.87;;;;;;;31.56;35.27;99041.20;4216105;82;28534;-80
2021/06/11 11:13:07;;;;;;;4.60;3.83;;;;;;;31.63;36.27;99030.78;4244008;82;28471;-82
2021/06/11 11:19:09;;;;;;;4.40;3.40;;;;;;;31.68;36.40;99027.67;4247031;82;28476;-85
2021/06/11 11:25:14;;;;;;;5.50;3.33;;;;;;;32.26;35.67;99023.48;4248019;82;28536;-83
2021/06/11 11:31:16;;;;;;;4.87;3.20;;;;;;;32.63;35.58;99026.92;4268718;82;46442;-88
2021/06/11 11:37:17;;;;;;;5.15;3.65;;;;;;;32.62;35.14;99023.94;4265335;82;28592;-82
2021/06/11 11:43:19;;;;;;;6.80;3.52;;;;;;;32.60;33.80;99019.92;4241609;82;28472;-82
2021/06/11 11:49:22;;;;;;;5.55;3.58;;;;;;;32.56;34.10;99012.92;4249271;82;28492;-83
2021/06/11 11:55:24;;;;;;;5.55;2.98;;;;;;;32.18;33.85;99017.05;4253828;82;28461;-84
2021/06/11 12:01:25;;;;;;;5.25;3.27;;;;;;;29.54;34.71;99065.13;4255059;82;28514;-82
2021/06/11 12:07:28;;;;;;;5.55;3.00;;;;;;;26.92;50.21;99093.08;4255251;82;28520;-83
2021/06/11 12:13:35;;;;;;;5.50;3.90;;;;;;;33.38;42.38;99085.13;4256780;82;28495;-84
2021/06/11 12:19:36;;;;;;;7.70;4.47;;;;;;;39.98;50.11;99105.59;3995214;87;28538;-88
2021/06/11 12:25:38;;;;;;;5.75;3.60;;;;;;;27.00;93.98;99112.29;3975573;88;28531;-83
2021/06/11 12:32:15;;;;;;;;;;;;;;;;;;;;;
2021/06/11 13:02:23;;;;;;;6.90;4.62;;;;;;;27.83;91.18;99075.60;3874761;89;28487;-83
2021/06/11 13:08:39;;;;;;;6.97;4.58;;;;;;;28.43;84.14;99065.97;3945585;83;28564;-82
2021/06/11 13:14:41;;;;;;;5.08;4.15;;;;;;;29.11;76.07;99051.02;4155353;83;28500;-81
2021/06/11 13:20:42;;;;;;;8.35;4.47;;;;;;;28.98;71.06;99039.21;4240686;82;28464;-82
2021/06/11 13:26:46;;;;;;;8.10;4.90;;;;;;;29.54;72.36;99042.19;4234103;82;28519;-82
2021/06/11 13:32:48;;;;;;;8.78;4.78;;;;;;;30.08;73.42;99035.69;4204432;82;28541;-82
2021/06/11 13:38:52;;;;;;;5.95;4.62;;;;;;;30.32;68.67;99030.45;4156357;84;28546;-81
2021/06/11 13:44:54;;;;;;;6.35;3.90;;;;;;;30.77;66.42;99021.80;4224917;82;28523;-81
2021/06/11 13:50:55;;;;;;;4.25;3.30;;;;;;;31.45;62.49;99016.63;4216507;82;28425;-82
2021/06/11 13:56:56;;;;;;;4.80;3.05;;;;;;;31.23;59.64;99023.20;4223847;82;28464;-81
2021/06/11 14:02:58;;;;;;;3.50;2.60;;;;;;;31.31;57.43;99019.98;4239821;82;28471;-81
2021/06/11 16:15:12;;;;;;;6.20;4.03;;;;;;;29.24;42.45;99008.02;3070992;114;28652;-84
2021/06/11 16:21:13;;;;;;;5.10;3.40;;;;;;;28.76;45.66;99010.14;3079962;112;28584;-84
2021/06/11 16:27:14;;;;;;;5.97;3.20;;;;;;;29.25;46.15;99009.02;3131270;110;28593;-81
2021/06/11 16:33:16;;;;;;;4.20;3.00;;;;;;;29.89;46.47;99003.98;3204471;104;28529;-84
2021/06/11 16:39:18;;;;;;;5.25;3.42;;;;;;;29.47;48.13;99010.37;3520260;90;28522;-84
2021/06/11 16:45:25;;;;;;;5.53;3.22;;;;;;;29.29;48.04;99006.34;4176671;82;28560;-83
2021/06/11 16:51:23;;;;;;;7.92;3.52;;;;;;;29.43;48.35;99006.70;4182990;83;28500;-83
2021/06/11 16:57:24;;;;;;;7.45;3.17;;;;;;;29.22;49.67;99006.98;4363696;79;28461;-82
2021/06/11 17:03:25;;;;;;;6.05;3.60;;;;;;;29.21;50.55;99007.58;4323887;79;28548;-80
2021/06/11 17:09:27;;;;;;;7.10;3.67;;;;;;;29.21;49.96;99006.76;4171164;82;28558;-82
2021/06/11 17:15:29;;;;;;;4.20;3.52;;;;;;;29.09;50.18;99003.49;4240533;81;28544;-82
2021/06/11 17:21:32;;;;;;;6.30;3.52;;;;;;;29.58;47.59;98997.36;4311459;81;28563;-84
2021/06/11 17:27:34;;;;;;;4.78;2.98;;;;;;;29.96;47.06;99002.75;4296952;81;28494;-82
2021/06/11 17:33:36;;;;;;;5.55;3.80;;;;;;;29.63;47.76;99007.58;4320715;79;28580;-82
2021/06/11 17:39:39;;;;;;;4.90;3.52;;;;;;;29.58;47.61;99008.44;4348871;79;28505;-82
2021/06/11 17:45:45;;;;;;;5.62;3.90;;;;;;;29.11;49.27;99010.88;4330847;79;28502;-85
2021/06/11 17:51:47;;;;;;;5.95;3.85;;;;;;;28.61;53.00;99013.09;4319348;80;28582;-85
2021/06/11 17:57:58;;;;;;;5.40;3.87;;;;;;;29.08;51.82;99008.81;4329477;79;28469;-83
2021/06/11 18:04:02;;;;;;;7.55;4.37;;;;;;;28.67;53.18;99014.46;4313166;79;28550;-81
2021/06/11 18:10:04;;;;;;;6.55;4.37;;;;;;;30.21;48.17;99025.27;4360248;79;28531;-83
2021/06/11 18:16:27;;;;;;;7.70;4.83;;;;;;;29.84;49.41;99016.75;4302814;80;28590;-83
2021/06/11 18:22:42;;;;;;;7.80;4.30;;;;;;;29.14;52.94;99011.55;4282567;81;28487;-83
2021/06/11 18:28:48;;;;;;;5.73;4.37;;;;;;;28.58;55.23;99027.05;4291543;81;28510;-83
2021/06/11 18:35:17;;;;;;;5.00;4.40;;;;;;;28.66;55.12;99026.69;4267435;81;37701;-82
2021/06/11 18:41:37;;;;;;;12.03;4.80;;;;;;;27.44;63.17;99028.22;4287080;81;28911;-84
2021/06/11 18:47:40;;;;;;;6.97;4.80;;;;;;;27.64;61.11;99035.34;4294441;81;28527;-83
2021/06/11 18:53:54;;;;;;;6.85;4.78;;;;;;;26.83;68.65;99030.50;4288799;81;28495;-85
2021/06/11 19:00:06;;;;;;;8.13;5.30;;;;;;;26.80;66.75;99031.19;4286899;81;28481;-85
2021/06/11 19:06:14;;;;;;;7.50;5.03;;;;;;;26.49;68.94;99024.20;4288762;81;28568;-85
2021/06/11 19:12:16;;;;;;;8.85;5.00;;;;;;;26.01;74.24;99044.26;4197383;82;28612;-84
2021/06/11 19:18:26;;;;;;;7.97;5.15;;;;;;;25.87;72.86;99044.51;4290138;81;28626;-84
2021/06/11 19:24:38;;;;;;;6.50;4.92;;;;;;;25.51;76.89;99047.20;4343580;79;28520;-80
2021/06/11 19:30:40;;;;;;;9.30;5.78;;;;;;;25.36;76.53;99047.16;4283981;81;28528;-81
2021/06/11 19:36:52;;;;;;;6.83;5.45;;;;;;;25.23;77.70;99049.81;4304856;81;28459;-82
2021/06/11 19:43:02;;;;;;;9.48;6.25;;;;;;;25.24;76.28;99050.63;4339707;79;28485;-82
2021/06/11 19:49:12;;;;;;;8.53;5.65;;;;;;;25.15;76.36;99039.08;4339070;79;28468;-83
2021/06/11 19:55:47;;;;;;;9.45;6.10;;;;;;;24.57;82.36;99046.80;4316065;80;28491;-83
2021/06/11 20:01:48;;;;;;;14.68;7.80;;;;;;;24.51;81.46;99052.44;4309100;80;28516;-81
2021/06/11 20:07:51;;;;;;;9.53;6.80;;;;;;;24.42;82.65;99056.34;4354577;79;28457;-82
2021/06/11 20:13:56;;;;;;;8.60;6.67;;;;;;;24.70;78.47;99056.79;4295579;79;28603;-82
2021/06/11 20:19:59;;;;;;;10.13;6.70;;;;;;;24.26;82.24;99060.92;4355331;80;28482;-84
2021/06/11 20:26:02;;;;;;;9.90;6.70;;;;;;;23.98;84.31;99061.20;4310225;81;28570;-83
2021/06/11 20:32:05;;;;;;;10.45;7.28;;;;;;;23.77;84.19;99059.62;4329583;80;28537;-81
2021/06/11 20:38:06;;;;;;;11.60;6.28;;;;;;;24.02;82.14;99055.89;4293692;82;28516;-81
2021/06/11 20:44:07;;;;;;;9.58;6.72;;;;;;;23.46;87.41;99064.61;4285143;81;28564;-81
2021/06/11 20:50:16;;;;;;;17.45;11.85;;;;;;;23.90;83.37;99067.48;4286974;80;28482;-80
2021/06/11 20:56:19;;;;;;;10.78;8.70;;;;;;;23.72;83.80;99062.53;4300903;81;28506;-80
2021/06/11 21:02:22;;;;;;;11.68;7.80;;;;;;;23.66;82.05;99057.17;4279476;81;28528;-82
2021/06/11 21:08:23;;;;;;;10.93;7.53;;;;;;;23.72;82.52;99059.78;4296387;81;28518;-79
2021/06/11 21:14:25;;;;;;;11.10;7.58;;;;;;;23.29;86.48;99062.05;4333948;79;28471;-80
2021/06/11 21:20:27;;;;;;;11.30;7.47;;;;;;;23.52;83.66;99066.09;4358495;79;28484;-82
2021/06/11 21:26:29;;;;;;;11.85;8.75;;;;;;;23.68;80.82;99062.34;4201752;82;28498;-79
2021/06/11 21:32:30;;;;;;;10.58;7.83;;;;;;;23.34;85.61;99060.53;4306603;81;28482;-78
2021/06/11 21:38:31;;;;;;;10.60;7.83;;;;;;;23.19;88.70;99068.58;4285117;81;28545;-77
2021/06/11 21:44:32;;;;;;;14.43;10.45;;;;;;;23.08;88.15;99058.45;4304450;81;28545;-77
2021/06/11 21:50:34;;;;;;;12.07;9.05;;;;;;;23.27;85.99;99068.36;4186279;82;28546;-79
2021/06/11 21:56:35;;;;;;;12.45;7.92;;;;;;;23.22;87.40;99075.38;4192872;83;28489;-78
2021/06/11 22:02:37;;;;;;;14.18;8.68;;;;;;;23.24;85.85;99077.23;4241306;82;28484;-78
2021/06/11 22:08:38;;;;;;;11.95;8.60;;;;;;;23.07;89.47;99079.32;4289194;81;28514;-80
2021/06/11 22:14:39;;;;;;;13.25;9.20;;;;;;;22.88;92.80;99079.54;4363692;79;28538;-80
2021/06/11 22:20:41;;;;;;;12.37;8.18;;;;;;;22.79;90.78;99071.23;4300701;81;28474;-79
2021/06/11 22:26:44;;;;;;;12.30;8.80;;;;;;;23.17;87.71;99074.12;4298614;81;28490;-80
2021/06/11 22:32:46;;;;;;;15.68;10.10;;;;;;;22.89;88.79;99067.45;4307712;81;28470;-80
2021/06/11 22:38:47;;;;;;;13.55;10.35;;;;;;;22.89;85.76;99067.45;4306630;81;28531;-79
2021/06/11 22:44:48;;;;;;;12.50;8.88;;;;;;;22.75;86.19;99071.63;4205541;82;28508;-79
2021/06/11 22:50:50;;;;;;;11.60;8.53;;;;;;;22.51;89.38;99073.55;4206792;82;28607;-79
2021/06/11 22:56:52;;;;;;;13.08;8.60;;;;;;;22.43;89.26;99078.36;4195794;82;28602;-80
2021/06/11 23:02:53;;;;;;;11.22;9.43;;;;;;;22.35;87.97;99073.64;4303545;80;28591;-79
2021/06/11 23:08:55;;;;;;;13.30;9.70;;;;;;;21.78;93.11;99089.89;4290939;81;28581;-78
2021/06/11 23:14:56;;;;;;;12.93;9.80;;;;;;;21.86;90.66;99086.45;4298290;81;28589;-79
2021/06/11 23:20:57;;;;;;;12.37;8.50;;;;;;;22.19;86.54;99072.60;4290152;81;28516;-79
2021/06/11 23:26:59;;;;;;;12.73;8.83;;;;;;;22.39;84.69;99076.00;4298745;81;28477;-79
2021/06/11 23:33:01;;;;;;;12.98;8.93;;;;;;;22.26;85.58;99077.65;4206958;82;28500;-79
2021/06/11 23:39:04;;;;;;;11.88;9.35;;;;;;;22.43;82.00;99073.70;4300565;81;28564;-79
2021/06/11 23:45:09;;;;;;;12.75;9.30;;;;;;;21.96;84.64;99068.98;4299730;81;28491;-81
2021/06/11 23:51:11;;;;;;;18.23;10.15;;;;;;;21.25;91.06;99069.55;4297106;80;28525;-81
2021/06/11 23:57:12;;;;;;;13.75;8.50;;;;;;;20.94;95.62;99059.70;4270669;82;28483;-80
